Skip Navigation LinksHome page > Weather > Current weather Skip Navigation Links

Current Weather

Long Island Mac Arthur, Islip, N.Y.

For information only: do not use for flight planning or navigation.
Latest weather
Observation time Saturday, July 11, 2020 11:16 PM EDT
Local time Sunday, July 12, 2020 12:03 AM EDT
Flight conditions Visual Meteorological Conditions
Winds
Wind direction South-Southwest (210°)
Wind speed 9 mph
Visibility 10 mi.
Sky condition
Ceiling 6,000 ft. broken clouds
Cloud layer scattered clouds 1,000 ft.
Cloud layer broken clouds 6,000 ft.
Cloud layer broken clouds 11,000 ft.
Cloud layer overcast 25,000 ft.
Temperature 75°F
Dewpoint 73°F
Altimeter 29.68 in.Hg
Derived measurements
Relative humidity 94%
Density altitude 1781 ft.
Remarks
System requires maintenance.
Automated weather observing station with precipitation discriminator.
METAR KISP 120316Z 21008KT 10SM SCT010 BKN060 BKN110 OVC250 24/23 A2968 RMK AO2 T02390228 $

Settings

Location code

InnerDrive.Weather 4.0.6770.0 Release CLR 4.0.30319.42000
Copyright ©2018 Inner Drive Technology. All rights reserved. Portions Copyright ©1986-2018 David Braverman.

Find weather

Site navigation


Skip Navigation Links

Place info

Page info

PayPal - The safer, easier way to pay online!

Return home.

Copyright ©2020 Inner Drive Technology. Purveyors of fine, hand-crafted computer software. Page printed 2020-07-12T04:03:07 UTC.